Pagina principale
METAR-TAF:

METAR-TAF

Aeroporti :

Kunming, Cina

latitudine: 25-01N, longitudine: 102-41E, altezza: 1892 m

Osservazione

Il bollettino è stato emesso 32 minuti fa, alle 06:00 UTC
Vento 10 kt da sud-ovest, variando fra sud e ovest/sud-ovest
Temperature 22°C
Umidità 60%
Pressione 1026 hPa
Visibilità 10 km o più
Poco nuvoloso ad un'altezza di 2600 ft, Cumulo congesto.
Nuvoloso ad un'altezza di 2600 ft

METAR: ZPPP 230600Z 22005MPS 170V250 9999 FEW026TCU BKN026 22/14 Q1026 NOSIG

Ora: 14:32 (06:32 UTC)

Previsione

Il bollettino è stato emesso 5 ore e 21 minuti fa, alle 01:11 UTC
Previsione valida dal 23 alle 06 UTC al 24 alle 06 UTC
Vento 8 kt da sud-ovest
Visibilità 10 km o più
Nubi sparse ad un'altezza di 2000 ft
Nuvoloso ad un'altezza di 4000 ft

TAF: ZPPP 230111Z 2306/2406 22004MPS 9999 SCT020 BKN040 TX23/2308Z TN14/2323Z

Osservazioni e previsioni meteorologiche di più di 4000 aeroporti (messaggi METAR e TAF).

Le stazioni disponibili sono rappresentate dai dischi gialli e rossi sulla carta.

Puntare il mouse per vedere il nome della stazione.

Clicca sopra per visualizzare le osservazioni e previsioni meteorologiche.

Per cambiare la mappa : fare clic sui pulsanti verdi con una croce nera per ingrandire, il pulsante verde con un trattino per diminuire, o sulla freccia verde per le mappe adiacenti.


METAR-TAF: